Time;durP1;ratioP1;P1;durP2;ratioP2;P2;SDS_P1;SDS_P2;PMS_P1;PMS_P2;Temp;Humidity;BMP_temperature;BMP_pressure;BME280_temperature;BME280_humidity;BME280_pressure;Samples;Min_cycle;Max_cycle;Signal;HPM_P1;HPM_P2
2024/03/27 00:01:46;;;;;;;5.10;2.60;;;;;;;;;;4984682;28;20061;-67
2024/03/27 00:04:11;;;;;;;4.95;2.25;;;7.70;76.50;;;;;;5016745;28;20025;-67
2024/03/27 00:06:37;;;;;;;4.95;2.67;;;;;;;;;;5010604;28;20041;-67
2024/03/27 00:09:03;;;;;;;4.20;2.22;;;;;;;;;;5013742;28;20018;-68
2024/03/27 00:11:30;;;;;;;5.45;2.67;;;;;;;;;;5005579;28;20595;-67
2024/03/27 00:13:56;;;;;;;4.38;2.40;;;;;;;;;;5014975;28;20045;-67
2024/03/27 00:16:21;;;;;;;4.18;2.35;;;;;;;;;;5013839;28;20067;-68
2024/03/27 00:18:47;;;;;;;6.30;2.83;;;;;;;;;;5013904;28;20116;-67
2024/03/27 00:21:13;;;;;;;5.53;2.78;;;;;;;;;;5008776;28;20033;-68
2024/03/27 00:23:39;;;;;;;6.22;2.72;;;;;;;;;;5012150;28;20086;-67
2024/03/27 00:26:05;;;;;;;5.28;2.58;;;;;;;;;;5003787;28;20045;-67
2024/03/27 00:28:32;;;;;;;5.07;2.78;;;;;;;;;;5006315;28;20113;-67
2024/03/27 00:30:58;;;;;;;5.03;2.20;;;;;;;;;;5012075;28;20022;-67
2024/03/27 00:33:23;;;;;;;5.28;2.83;;;;;;;;;;5015376;28;20049;-67
2024/03/27 00:35:56;;;;;;;8.48;3.03;;;;;;;;;;5015842;28;20025;-68
2024/03/27 00:38:22;;;;;;;5.13;2.60;;;;;;;;;;5011639;28;20466;-67
2024/03/27 00:40:49;;;;;;;4.80;1.98;;;;;;;;;;5015366;28;20094;-67
2024/03/27 00:43:15;;;;;;;4.72;2.45;;;;;;;;;;5011328;28;20049;-67
2024/03/27 00:45:41;;;;;;;4.90;2.78;;;;;;;;;;5021550;28;20119;-67
2024/03/27 00:48:07;;;;;;;6.80;2.58;;;;;;;;;;5016029;28;20113;-66
2024/03/27 00:50:33;;;;;;;4.75;1.92;;;6.50;80.90;;;;;;5020540;28;20032;-66
2024/03/27 00:52:59;;;;;;;5.00;2.45;;;5.70;83.70;;;;;;5023448;28;20060;-66
2024/03/27 00:55:25;;;;;;;6.47;2.63;;;;;;;;;;5019164;28;20056;-67
2024/03/27 00:57:51;;;;;;;6.97;3.08;;;;;;;;;;5010969;28;20029;-66
2024/03/27 01:00:17;;;;;;;5.40;2.85;;;5.60;83.70;;;;;;4993283;28;20050;-66
2024/03/27 01:02:43;;;;;;;4.88;2.60;;;;;;;;;;5014918;28;20076;-66
2024/03/27 01:05:10;;;;;;;5.03;2.60;;;;;;;;;;5012359;28;20676;-66
2024/03/27 01:07:36;;;;;;;6.05;2.97;;;;;;;;;;5017881;28;20087;-66
2024/03/27 01:10:02;;;;;;;6.80;3.60;;;;;;;;;;5017078;28;20069;-66
2024/03/27 01:12:28;;;;;;;5.38;2.65;;;;;;;;;;5014246;28;20470;-68
2024/03/27 01:14:54;;;;;;;4.45;2.25;;;;;;;;;;5017981;28;20152;-66
2024/03/27 01:17:20;;;;;;;6.35;2.83;;;;;;;;;;5014312;28;20395;-67
2024/03/27 01:19:46;;;;;;;5.60;2.67;;;;;;;;;;5022806;28;20044;-66
2024/03/27 01:22:12;;;;;;;6.85;2.70;;;;;;;;;;5017717;28;20026;-67
2024/03/27 01:24:38;;;;;;;5.78;2.80;;;;;;;;;;5016911;28;20029;-67
2024/03/27 01:27:04;;;;;;;5.40;2.72;;;;;;;;;;5007859;28;20092;-66
2024/03/27 01:29:30;;;;;;;6.60;2.88;;;;;;;;;;5015556;28;20068;-66
2024/03/27 01:31:56;;;;;;;6.63;3.10;;;;;;;;;;5031406;28;20060;-66
2024/03/27 01:34:22;;;;;;;5.63;2.17;;;;;;;;;;5026722;28;20124;-66
2024/03/27 01:36:48;;;;;;;6.38;3.00;;;;;;;;;;5019362;28;20441;-66
2024/03/27 01:39:14;;;;;;;6.25;2.63;;;;;;;;;;5030277;28;20113;-66
2024/03/27 01:41:40;;;;;;;5.65;2.60;;;;;;;;;;5019071;28;20593;-68
2024/03/27 01:44:14;;;;;;;5.50;2.85;;;;;;;;;;5025551;28;20048;-66
2024/03/27 01:46:40;;;;;;;5.53;2.50;;;;;;;;;;5019743;28;20029;-67
2024/03/27 01:49:07;;;;;;;6.82;3.05;;;;;;;;;;5019304;28;20061;-69
2024/03/27 01:51:33;;;;;;;6.18;2.65;;;;;;;;;;5016971;28;20124;-67
2024/03/27 01:53:59;;;;;;;6.43;3.10;;;;;;;;;;5014081;28;20125;-67
2024/03/27 01:56:26;;;;;;;4.53;2.35;;;;;;;;;;5021498;28;20029;-67
2024/03/27 01:58:52;;;;;;;5.82;2.95;;;;;;;;;;5021089;28;20504;-67
2024/03/27 02:01:18;;;;;;;7.38;3.10;;;;;;;;;;5004537;28;20112;-67
2024/03/27 02:03:44;;;;;;;5.75;2.75;;;;;;;;;;5013608;28;20053;-67
2024/03/27 02:06:11;;;;;;;5.90;2.67;;;;;;;;;;5019396;28;20470;-67
2024/03/27 02:08:37;;;;;;;4.85;2.47;;;;;;;;;;5020494;28;20034;-67
2024/03/27 02:11:03;;;;;;;5.72;2.85;;;;;;;;;;5023538;28;20132;-67
2024/03/27 02:13:28;;;;;;;6.78;3.40;;;;;;;;;;5022306;28;20455;-66
2024/03/27 02:16:01;;;;;;;4.45;2.45;;;;;;;;;;5020259;28;20037;-67
2024/03/27 02:18:27;;;;;;;6.47;3.00;;;;;;;;;;5012799;28;20344;-66
2024/03/27 02:20:53;;;;;;;7.10;2.85;;;;;;;;;;5020897;28;20098;-66
2024/03/27 02:23:20;;;;;;;4.07;2.50;;;;;;;;;;5012224;28;20022;-67
2024/03/27 02:25:57;;;;;;;7.97;3.00;;;;;;;;;;5014039;28;20037;-66
2024/03/27 02:28:23;;;;;;;6.15;2.80;;;;;;;;;;5020477;28;20152;-66
2024/03/27 02:30:49;;;;;;;6.43;3.25;;;;;;;;;;5018925;28;20429;-67
2024/03/27 02:33:15;;;;;;;6.35;2.92;;;;;;;;;;5015581;28;20152;-66
2024/03/27 02:35:41;;;;;;;6.78;3.25;;;;;;;;;;5016928;28;20609;-66
2024/03/27 02:38:06;;;;;;;4.97;2.80;;;;;;;;;;5011904;28;20040;-66
2024/03/27 02:40:32;;;;;;;6.43;3.58;;;;;;;;;;5014663;28;20026;-67
2024/03/27 02:42:58;;;;;;;5.13;2.85;;;;;;;;;;5010388;28;20037;-66
2024/03/27 02:45:24;;;;;;;5.75;2.78;;;;;;;;;;5014727;28;20029;-67
2024/03/27 02:47:50;;;;;;;5.60;2.40;;;;;;;;;;5014302;28;20045;-67
2024/03/27 02:50:16;;;;;;;7.22;3.25;;;;;;;;;;5019675;28;20074;-67
2024/03/27 02:52:42;;;;;;;6.47;2.97;;;;;;;;;;5016721;28;20022;-67
2024/03/27 02:55:08;;;;;;;5.38;3.08;;;;;;;;;;5017607;28;20033;-68
2024/03/27 02:57:34;;;;;;;5.90;2.85;;;;;;;;;;5013273;28;20053;-69
2024/03/27 03:00:00;;;;;;;6.25;3.00;;;;;;;;;;4995872;28;20475;-67
2024/03/27 03:02:26;;;;;;;4.90;2.80;;;;;;;;;;5009387;28;20121;-67
2024/03/27 03:04:51;;;;;;;6.47;3.05;;;;;;;;;;5015725;28;20064;-67
2024/03/27 03:07:17;;;;;;;5.53;2.88;;;;;;;;;;5012440;28;20049;-66
2024/03/27 03:09:43;;;;;;;6.90;2.78;;;;;;;;;;5023639;28;20033;-66
2024/03/27 03:12:09;;;;;;;6.60;3.17;;;;;;;;;;5011964;28;20077;-67
2024/03/27 03:14:35;;;;;;;5.05;2.58;;;;;;;;;;5012376;28;20037;-67
2024/03/27 03:17:02;;;;;;;5.93;2.90;;;;;;;;;;5020144;28;20037;-68
2024/03/27 03:19:28;;;;;;;6.95;3.17;;;;;;;;;;5015465;28;20470;-66
2024/03/27 03:21:54;;;;;;;8.35;3.55;;;;;;;;;;5015442;28;20128;-66
2024/03/27 03:24:20;;;;;;;5.38;2.85;;;;;;;;;;5021188;28;20108;-67
2024/03/27 03:26:46;;;;;;;7.47;3.10;;;;;;;;;;5015569;28;20463;-66
2024/03/27 03:29:11;;;;;;;4.45;2.63;;;5.60;84.30;;;;;;5016510;28;20033;-67
2024/03/27 03:31:38;;;;;;;6.78;3.00;;;;;;;;;;5016250;28;20049;-67
2024/03/27 03:34:03;;;;;;;7.18;3.08;;;;;;;;;;5015558;28;20038;-67
2024/03/27 03:36:29;;;;;;;6.50;3.15;;;4.70;88.20;;;;;;5011721;28;20056;-67
2024/03/27 03:38:55;;;;;;;6.40;3.13;;;;;;;;;;5007916;28;20423;-67
2024/03/27 03:41:21;;;;;;;5.85;2.70;;;;;;;;;;5016577;28;20298;-67
2024/03/27 03:43:47;;;;;;;4.40;2.47;;;;;;;;;;5020502;28;20116;-67
2024/03/27 03:46:12;;;;;;;5.97;3.08;;;;;;;;;;5010699;28;20029;-67
2024/03/27 03:48:38;;;;;;;6.10;2.33;;;;;;;;;;5015931;28;20113;-66
2024/03/27 03:51:04;;;;;;;6.55;2.92;;;;;;;;;;5019106;28;20061;-67
2024/03/27 03:53:30;;;;;;;6.75;3.20;;;;;;;;;;5015505;28;20025;-66
2024/03/27 03:55:56;;;;;;;6.53;3.28;;;;;;;;;;5016352;28;20116;-67
2024/03/27 03:58:22;;;;;;;6.75;3.53;;;;;;;;;;5027938;28;20113;-67
2024/03/27 04:00:52;;;;;;;7.03;3.00;;;4.80;88.10;;;;;;5003181;28;20122;-67
2024/03/27 04:03:18;;;;;;;6.50;2.30;;;;;;;;;;5017028;28;20056;-66
2024/03/27 04:05:44;;;;;;;7.43;2.88;;;;;;;;;;5011439;28;20087;-66
2024/03/27 04:08:09;;;;;;;7.68;3.15;;;4.60;88.50;;;;;;5021695;28;20460;-67
2024/03/27 04:10:42;;;;;;;6.57;2.95;;;;;;;;;;5015933;28;20034;-67
2024/03/27 04:13:08;;;;;;;6.07;3.03;;;;;;;;;;5019301;28;20386;-67
2024/03/27 04:15:43;;;;;;;6.90;3.15;;;4.60;88.60;;;;;;5019740;28;20212;-67
2024/03/27 04:18:08;;;;;;;7.20;3.28;;;4.40;89.10;;;;;;5019937;28;20029;-67
2024/03/27 04:20:34;;;;;;;5.28;2.65;;;4.40;89.30;;;;;;5024169;28;20476;-67
2024/03/27 04:23:00;;;;;;;5.03;2.70;;;;;;;;;;5015695;28;20045;-67
2024/03/27 04:25:26;;;;;;;7.10;3.10;;;;;;;;;;5018628;28;20033;-68
2024/03/27 04:27:52;;;;;;;7.63;3.53;;;;;;;;;;5023337;28;20037;-67
2024/03/27 04:30:18;;;;;;;5.88;2.85;;;;;;;;;;5015222;28;20331;-65
2024/03/27 04:32:46;;;;;;;6.22;3.22;;;4.50;89.20;;;;;;5033642;28;20113;-66
2024/03/27 04:35:11;;;;;;;5.28;2.90;;;4.40;89.20;;;;;;5016018;28;20110;-65
2024/03/27 04:37:37;;;;;;;7.47;2.92;;;4.50;89.30;;;;;;5024780;28;20041;-65
2024/03/27 04:40:09;;;;;;;6.53;3.25;;;4.40;89.40;;;;;;5012998;28;20317;-65
2024/03/27 04:42:38;;;;;;;6.93;3.35;;;4.50;89.30;;;;;;4992674;28;20076;-65
2024/03/27 04:45:04;;;;;;;8.95;3.58;;;;;;;;;;5015672;28;20056;-67
2024/03/27 04:47:31;;;;;;;5.72;2.75;;;;;;;;;;5013424;28;20492;-65
2024/03/27 04:49:57;;;;;;;5.85;2.60;;;;;;;;;;5017039;28;20076;-66
2024/03/27 04:52:22;;;;;;;5.95;2.72;;;4.40;89.20;;;;;;5013274;28;20053;-66
2024/03/27 04:54:48;;;;;;;7.28;2.97;;;;;;;;;;5016248;28;20059;-65
2024/03/27 04:57:15;;;;;;;6.05;3.03;;;;;;;;;;5016567;28;20034;-65
2024/03/27 04:59:42;;;;;;;4.30;2.50;;;4.30;89.60;;;;;;5017864;28;20064;-65
2024/03/27 05:02:08;;;;;;;5.88;3.05;;;;;;;;;;5024222;28;20064;-65
2024/03/27 05:04:33;;;;;;;5.93;2.97;;;4.10;89.90;;;;;;5023816;28;20082;-65
2024/03/27 05:06:59;;;;;;;7.68;2.92;;;4.20;89.70;;;;;;5018660;28;20116;-65
2024/03/27 05:09:24;;;;;;;6.40;3.35;;;4.10;90.10;;;;;;5016939;28;20064;-64
2024/03/27 05:11:50;;;;;;;5.32;2.90;;;4.10;90.00;;;;;;5015991;28;20524;-67
2024/03/27 05:14:16;;;;;;;6.43;3.00;;;4.10;90.10;;;;;;5013209;28;20030;-65
2024/03/27 05:16:41;;;;;;;5.78;3.20;;;4.10;90.10;;;;;;5018799;28;20157;-65
2024/03/27 05:19:07;;;;;;;8.15;3.53;;;4.10;90.30;;;;;;5028762;28;20224;-65
2024/03/27 05:21:32;;;;;;;6.65;3.03;;;4.00;90.40;;;;;;5022669;28;20045;-64
2024/03/27 05:23:58;;;;;;;7.07;2.90;;;4.10;90.70;;;;;;5027853;28;20045;-65
2024/03/27 05:26:23;;;;;;;6.13;3.25;;;4.00;90.70;;;;;;5021649;28;20029;-65
2024/03/27 05:28:49;;;;;;;6.60;3.08;;;4.10;90.80;;;;;;5017488;28;20045;-65
2024/03/27 05:31:14;;;;;;;6.55;3.30;;;4.10;90.50;;;;;;5020370;28;20394;-65
2024/03/27 05:33:40;;;;;;;6.97;3.17;;;;;;;;;;5015000;28;20076;-65
2024/03/27 05:36:07;;;;;;;8.10;2.78;;;4.10;90.70;;;;;;5021366;28;20109;-64
2024/03/27 05:38:32;;;;;;;5.57;3.00;;;4.10;90.80;;;;;;5017959;28;20021;-65
2024/03/27 05:40:58;;;;;;;5.18;2.55;;;4.10;90.80;;;;;;5022610;28;20033;-65
2024/03/27 05:43:23;;;;;;;6.28;2.85;;;4.10;90.70;;;;;;5019831;28;20123;-66
2024/03/27 05:45:49;;;;;;;6.15;2.75;;;4.20;90.40;;;;;;5022008;28;20045;-64
2024/03/27 05:48:14;;;;;;;7.03;2.95;;;4.20;90.30;;;;;;5022655;28;20106;-65
2024/03/27 05:50:40;;;;;;;5.47;2.50;;;4.20;90.20;;;;;;5014335;28;20184;-64
2024/03/27 05:53:06;;;;;;;6.45;2.90;;;4.20;90.40;;;;;;5015217;28;20140;-65
2024/03/27 05:55:32;;;;;;;9.93;3.22;;;4.20;90.40;;;;;;5009071;28;20155;-65
2024/03/27 05:57:57;;;;;;;5.53;2.72;;;4.20;90.40;;;;;;5008126;28;20053;-65
2024/03/27 06:00:23;;;;;;;6.78;3.30;;;4.30;90.40;;;;;;5025427;28;20033;-65
2024/03/27 06:02:49;;;;;;;5.60;3.38;;;4.30;90.10;;;;;;5018994;28;20521;-67
2024/03/27 06:05:15;;;;;;;7.80;3.38;;;4.30;90.40;;;;;;5018496;28;20070;-64
2024/03/27 06:07:41;;;;;;;5.78;3.22;;;4.40;90.40;;;;;;5020033;28;20111;-65
2024/03/27 06:10:06;;;;;;;5.88;3.08;;;4.60;90.20;;;;;;5014677;28;20130;-64
2024/03/27 06:12:32;;;;;;;6.60;3.45;;;;;;;;;;5019854;28;20030;-64
2024/03/27 06:14:58;;;;;;;7.10;3.38;;;4.60;89.70;;;;;;5025795;28;20446;-63
2024/03/27 06:17:24;;;;;;;7.43;3.15;;;4.70;89.70;;;;;;5016504;28;20026;-64
2024/03/27 06:19:50;;;;;;;5.60;2.92;;;4.80;89.30;;;;;;5017493;28;20075;-64
2024/03/27 06:22:16;;;;;;;5.55;3.17;;;5.00;88.90;;;;;;5012950;28;20033;-64
2024/03/27 06:24:41;;;;;;;5.28;3.03;;;5.10;88.30;;;;;;5022415;28;20050;-65
2024/03/27 06:27:07;;;;;;;6.57;3.17;;;5.30;87.50;;;;;;5015546;28;20447;-63
2024/03/27 06:29:32;;;;;;;6.28;3.00;;;5.30;87.40;;;;;;5024223;28;20100;-65
2024/03/27 06:31:58;;;;;;;6.85;3.10;;;5.50;87.40;;;;;;5013459;28;20030;-64
2024/03/27 06:34:23;;;;;;;6.50;3.17;;;5.60;86.50;;;;;;5014459;28;20030;-64
2024/03/27 06:36:49;;;;;;;6.75;3.08;;;5.70;85.90;;;;;;5010287;28;20037;-65
2024/03/27 06:39:14;;;;;;;5.38;2.53;;;5.90;85.80;;;;;;5016893;28;20701;-64
2024/03/27 06:41:40;;;;;;;5.30;2.47;;;6.00;85.70;;;;;;5012977;28;20039;-65
2024/03/27 06:44:06;;;;;;;6.43;2.70;;;6.10;84.60;;;;;;5012920;28;20079;-65
2024/03/27 06:46:36;;;;;;;6.68;2.80;;;6.20;84.00;;;;;;5014663;28;20065;-65
2024/03/27 06:49:21;;;;;;;5.15;2.65;;;6.50;83.80;;;;;;5018369;28;20026;-65
2024/03/27 06:51:50;;;;;;;5.60;3.00;;;6.70;83.70;;;;;;5016689;28;20030;-64
2024/03/27 06:54:16;;;;;;;4.80;2.60;;;6.70;81.90;;;;;;5013652;28;20461;-65
2024/03/27 06:56:42;;;;;;;6.07;2.72;;;6.70;82.20;;;;;;5007868;28;20037;-64
2024/03/27 06:59:08;;;;;;;5.80;2.95;;;;;;;;;;5020411;28;20036;-65
2024/03/27 07:01:34;;;;;;;6.88;3.00;;;6.90;82.00;;;;;;5019803;28;20053;-64
2024/03/27 07:04:01;;;;;;;5.90;2.95;;;6.90;80.70;;;;;;5011238;28;20113;-64
2024/03/27 07:06:27;;;;;;;6.07;2.88;;;7.00;81.50;;;;;;5024898;28;20032;-65
2024/03/27 07:08:52;;;;;;;6.40;3.10;;;7.20;81.50;;;;;;5010040;28;20045;-65
2024/03/27 07:11:18;;;;;;;6.70;2.97;;;7.20;80.50;;;;;;5016826;28;20034;-64
2024/03/27 07:13:44;;;;;;;5.70;3.08;;;7.20;80.30;;;;;;5019667;28;20430;-64
2024/03/27 07:16:09;;;;;;;5.05;3.45;;;7.30;80.30;;;;;;5010465;28;20343;-64
2024/03/27 07:18:35;;;;;;;5.22;2.83;;;7.30;79.80;;;;;;5016629;28;20034;-65
2024/03/27 07:21:01;;;;;;;5.68;2.80;;;7.30;79.60;;;;;;5015087;28;20167;-65
2024/03/27 07:23:29;;;;;;;5.93;2.92;;;7.40;79.60;;;;;;5017708;28;20037;-65
2024/03/27 07:25:55;;;;;;;4.95;3.00;;;7.50;79.70;;;;;;5015094;28;20022;-66
2024/03/27 07:28:21;;;;;;;7.88;2.92;;;7.60;80.00;;;;;;5020696;28;20053;-65
2024/03/27 07:30:50;;;;;;;6.03;3.00;;;7.70;79.30;;;;;;5013640;28;20040;-65
2024/03/27 07:33:16;;;;;;;6.97;3.10;;;7.80;79.20;;;;;;5009056;28;20033;-65
2024/03/27 07:35:42;;;;;;;4.65;2.55;;;7.90;78.80;;;;;;5016756;28;20484;-66
2024/03/27 07:38:08;;;;;;;5.68;2.88;;;8.00;79.00;;;;;;5012631;28;20153;-66
2024/03/27 07:40:33;;;;;;;5.97;3.03;;;8.10;79.00;;;;;;5013657;28;20140;-65
2024/03/27 07:42:58;;;;;;;3.95;2.33;;;8.20;78.20;;;;;;5008848;28;20379;-65
2024/03/27 07:45:24;;;;;;;5.30;2.60;;;8.40;77.60;;;;;;5010323;28;20125;-65
2024/03/27 07:47:50;;;;;;;6.80;2.72;;;8.50;77.50;;;;;;5022459;28;20034;-65
2024/03/27 07:50:16;;;;;;;4.65;2.63;;;8.60;76.30;;;;;;5023568;28;20479;-65
2024/03/27 07:52:43;;;;;;;5.03;2.50;;;8.70;76.60;;;;;;5028374;28;20060;-65
2024/03/27 07:55:09;;;;;;;5.45;2.60;;;8.90;76.90;;;;;;5012956;28;20033;-65
2024/03/27 07:57:35;;;;;;;4.85;2.75;;;9.00;76.00;;;;;;5012732;28;20415;-65
2024/03/27 08:00:01;;;;;;;5.38;2.03;;;;;;;;;;5016536;28;20096;-66
2024/03/27 08:02:26;;;;;;;4.43;2.53;;;9.40;75.60;;;;;;5018861;28;20064;-65
2024/03/27 08:04:52;;;;;;;4.07;2.50;;;9.60;74.40;;;;;;5007611;28;20102;-65
2024/03/27 08:07:18;;;;;;;4.63;2.50;;;9.70;73.10;;;;;;5017202;28;20079;-65
2024/03/27 08:09:53;;;;;;;3.92;2.20;;;9.90;72.80;;;;;;5011598;28;20256;-65
2024/03/27 08:12:18;;;;;;;6.82;2.78;;;9.80;72.60;;;;;;5018544;28;20100;-65
2024/03/27 08:14:44;;;;;;;5.93;2.78;;;10.00;73.10;;;;;;5023848;28;20112;-65
2024/03/27 08:17:10;;;;;;;4.95;2.20;;;10.00;72.50;;;;;;5011937;28;20049;-66
2024/03/27 08:19:40;;;;;;;2.92;1.95;;;10.00;72.70;;;;;;5016670;28;20048;-65
2024/03/27 08:22:06;;;;;;;4.43;2.20;;;10.10;72.20;;;;;;5014815;28;20519;-66
2024/03/27 08:24:31;;;;;;;3.75;2.13;;;10.40;72.70;;;;;;5018704;28;20088;-66
2024/03/27 08:26:57;;;;;;;4.70;2.53;;;;;;;;;;5010182;28;20041;-65
2024/03/27 08:29:23;;;;;;;5.40;2.63;;;10.50;69.40;;;;;;5008488;28;20049;-66
2024/03/27 08:31:49;;;;;;;3.80;2.13;;;;;;;;;;5013770;28;20038;-66
2024/03/27 08:34:14;;;;;;;5.95;2.40;;;11.00;69.20;;;;;;5012290;28;20108;-65
2024/03/27 08:36:40;;;;;;;4.55;2.28;;;12.00;68.60;;;;;;5019191;28;20077;-65
2024/03/27 08:39:07;;;;;;;3.70;2.08;;;11.90;67.00;;;;;;5010406;28;20038;-66
2024/03/27 08:41:33;;;;;;;3.88;1.77;;;;;;;;;;5024053;28;20113;-65
2024/03/27 08:44:02;;;;;;;5.10;2.53;;;12.00;66.80;;;;;;5017523;28;20767;-65
2024/03/27 08:46:28;;;;;;;5.72;2.60;;;12.80;66.40;;;;;;4998015;28;20045;-67
2024/03/27 08:48:54;;;;;;;4.53;2.25;;;12.70;67.00;;;;;;5024121;28;20364;-65
2024/03/27 08:51:20;;;;;;;4.38;2.08;;;12.90;65.40;;;;;;5016934;28;20463;-66
2024/03/27 08:53:47;;;;;;;3.67;1.88;;;13.10;65.10;;;;;;5020213;28;20102;-66
2024/03/27 08:56:13;;;;;;;5.60;1.95;;;;;;;;;;5014963;28;20033;-66
2024/03/27 08:58:39;;;;;;;3.65;1.80;;;13.50;64.60;;;;;;5021656;28;20079;-66
2024/03/27 09:01:06;;;;;;;4.60;2.00;;;13.10;65.30;;;;;;5021480;28;20338;-65
2024/03/27 09:03:31;;;;;;;5.75;2.45;;;13.10;63.10;;;;;;5020409;28;20061;-65
2024/03/27 09:05:57;;;;;;;4.70;2.20;;;13.10;63.40;;;;;;5021368;28;20033;-66
2024/03/27 09:08:22;;;;;;;4.55;2.20;;;13.30;62.80;;;;;;5023129;28;20064;-65
2024/03/27 09:10:48;;;;;;;5.47;2.15;;;13.60;63.50;;;;;;5014447;28;20064;-66
2024/03/27 09:13:13;;;;;;;4.07;1.92;;;13.70;63.90;;;;;;5022367;28;20106;-66
2024/03/27 09:15:39;;;;;;;8.07;2.55;;;13.70;60.90;;;;;;5016410;28;20179;-66
2024/03/27 09:18:05;;;;;;;4.25;2.10;;;13.80;62.80;;;;;;5013653;28;20110;-66
2024/03/27 09:20:32;;;;;;;3.70;1.75;;;14.10;61.80;;;;;;5014630;28;20089;-67
2024/03/27 09:22:57;;;;;;;4.13;1.50;;;14.30;62.00;;;;;;5014714;28;20059;-65
2024/03/27 09:25:23;;;;;;;4.10;1.95;;;14.50;60.60;;;;;;5018136;28;20067;-65
2024/03/27 09:27:48;;;;;;;4.80;2.40;;;14.50;60.90;;;;;;5016693;28;20049;-65
2024/03/27 09:30:16;;;;;;;4.07;1.88;;;14.30;61.70;;;;;;5019387;28;20029;-64
2024/03/27 09:32:42;;;;;;;4.00;2.10;;;14.30;61.60;;;;;;5012280;28;20144;-65
2024/03/27 09:35:09;;;;;;;4.53;2.15;;;14.50;60.20;;;;;;5015069;28;20037;-65
2024/03/27 09:37:34;;;;;;;4.93;2.08;;;14.60;60.50;;;;;;5011179;28;20026;-64
2024/03/27 09:40:00;;;;;;;3.85;2.00;;;;;;;;;;5016822;28;20429;-67
2024/03/27 09:42:27;;;;;;;4.13;1.77;;;;;;;;;;5018904;28;20103;-73
2024/03/27 09:44:53;;;;;;;4.47;1.90;;;;;;;;;;5003934;28;20402;-67
2024/03/27 09:47:19;;;;;;;3.60;1.67;;;;;;;;;;5014774;28;20030;-66
2024/03/27 09:49:45;;;;;;;5.00;1.80;;;;;;;;;;5014623;28;20112;-68
2024/03/27 09:52:12;;;;;;;3.30;1.92;;;;;;;;;;5013830;28;20037;-67
2024/03/27 09:54:38;;;;;;;3.30;1.73;;;;;;;;;;5018737;28;20060;-67
2024/03/27 09:57:04;;;;;;;3.65;1.98;;;15.00;60.00;;;;;;5015482;28;20116;-65
2024/03/27 09:59:30;;;;;;;4.35;1.73;;;;;;;;;;5012582;28;20098;-66
2024/03/27 10:02:06;;;;;;;4.38;1.67;;;;;;;;;;5014775;28;20066;-65
2024/03/27 10:04:33;;;;;;;5.60;2.55;;;;;;;;;;5023629;28;20140;-66
2024/03/27 10:06:59;;;;;;;3.40;1.42;;;;;;;;;;5012604;28;20018;-67
2024/03/27 10:09:25;;;;;;;3.30;1.52;;;;;;;;;;5017673;28;20032;-66
2024/03/27 10:11:51;;;;;;;3.55;1.70;;;;;;;;;;5009408;28;20406;-66
2024/03/27 10:14:17;;;;;;;4.10;1.63;;;;;;;;;;5018314;28;20029;-66
2024/03/27 10:16:46;;;;;;;3.03;1.58;;;;;;;;;;5017949;28;20111;-66
2024/03/27 10:19:12;;;;;;;3.22;1.67;;;;;;;;;;5028152;28;20033;-66
2024/03/27 10:21:38;;;;;;;5.50;1.85;;;;;;;;;;5016228;28;20018;-66
2024/03/27 10:24:04;;;;;;;3.63;1.67;;;;;;;;;;5015587;28;20083;-66
2024/03/27 10:26:33;;;;;;;3.85;1.80;;;;;;;;;;5020449;28;20029;-66
2024/03/27 10:28:59;;;;;;;3.25;1.67;;;;;;;;;;5021478;28;20048;-67
2024/03/27 10:31:28;;;;;;;4.50;2.00;;;;;;;;;;5016920;28;20018;-66
2024/03/27 10:33:54;;;;;;;3.78;2.15;;;;;;;;;;5014782;28;20034;-67
2024/03/27 10:36:24;;;;;;;2.67;1.50;;;;;;;;;;5016343;28;20410;-67
2024/03/27 10:38:54;;;;;;;4.00;1.70;;;;;;;;;;5011153;28;20361;-67
2024/03/27 10:41:20;;;;;;;3.58;2.00;;;;;;;;;;5018918;28;20219;-66
2024/03/27 10:43:47;;;;;;;3.50;1.67;;;;;;;;;;5016931;28;20116;-66
2024/03/27 10:46:15;;;;;;;3.95;1.70;;;;;;;;;;4998215;28;20045;-66
2024/03/27 10:48:41;;;;;;;3.78;1.80;;;;;;;;;;5016375;28;20038;-67
2024/03/27 10:51:07;;;;;;;2.65;1.58;;;;;;;;;;5019397;28;20041;-65
2024/03/27 10:53:34;;;;;;;3.47;1.63;;;;;;;;;;5019605;28;20121;-66
2024/03/27 10:56:00;;;;;;;3.22;1.50;;;;;;;;;;5016059;28;20204;-66
2024/03/27 10:58:27;;;;;;;3.75;1.35;;;;;;;;;;5018086;28;20030;-66
2024/03/27 11:00:53;;;;;;;4.05;1.92;;;;;;;;;;5023129;28;20033;-66
2024/03/27 11:03:19;;;;;;;3.00;1.50;;;;;;;;;;5015710;28;20066;-67
2024/03/27 11:05:46;;;;;;;3.97;1.85;;;;;;;;;;5023460;28;20099;-67
2024/03/27 11:08:12;;;;;;;4.10;1.60;;;;;;;;;;5030389;28;20033;-67
2024/03/27 11:10:38;;;;;;;4.28;1.63;;;;;;;;;;5012579;28;20355;-67
2024/03/27 11:13:04;;;;;;;3.58;1.67;;;;;;;;;;5010423;28;20034;-68
2024/03/27 11:15:32;;;;;;;4.40;1.70;;;;;;;;;;5015140;28;20108;-67
2024/03/27 11:17:58;;;;;;;3.45;1.70;;;;;;;;;;5018189;28;20029;-68
2024/03/27 11:20:25;;;;;;;4.20;1.65;;;;;;;;;;5020449;28;20113;-68
2024/03/27 11:22:54;;;;;;;3.67;1.60;;;;;;;;;;5018964;28;20509;-67
2024/03/27 11:25:27;;;;;;;4.57;1.60;;;;;;;;;;5015316;28;20030;-67
2024/03/27 11:27:53;;;;;;;3.72;1.70;;;;;;;;;;5015873;28;20034;-67
2024/03/27 11:30:20;;;;;;;4.32;1.88;;;;;;;;;;5020965;28;20074;-66
2024/03/27 11:32:47;;;;;;;3.42;1.63;;;;;;;;;;5013618;28;20042;-66
2024/03/27 11:35:16;;;;;;;2.47;1.20;;;;;;;;;;5013675;28;20033;-66
2024/03/27 11:37:43;;;;;;;2.37;1.20;;;;;;;;;;5021617;28;20039;-66
2024/03/27 11:40:09;;;;;;;3.13;1.23;;;;;;;;;;5015848;28;20035;-67
2024/03/27 11:42:36;;;;;;;3.67;1.60;;;;;;;;;;5015952;28;20044;-72
2024/03/27 11:45:02;;;;;;;3.95;1.70;;;;;;;;;;4988356;28;20064;-67
2024/03/27 11:47:28;;;;;;;3.05;1.25;;;;;;;;;;5023971;28;20123;-66
2024/03/27 11:49:54;;;;;;;3.67;1.60;;;;;;;;;;5009538;28;20030;-65
2024/03/27 11:52:20;;;;;;;2.17;1.13;;;;;;;;;;5016371;28;20025;-65
2024/03/27 11:54:46;;;;;;;3.65;1.70;;;;;;;;;;5006935;28;20072;-65
2024/03/27 11:57:12;;;;;;;4.10;1.70;;;;;;;;;;5012209;28;20163;-65
2024/03/27 11:59:38;;;;;;;3.03;1.42;;;;;;;;;;5017863;28;20038;-65
2024/03/27 12:02:04;;;;;;;5.25;1.98;;;;;;;;;;5012899;28;20386;-66
2024/03/27 12:04:30;;;;;;;4.30;1.90;;;;;;;;;;5022699;28;20128;-65
2024/03/27 12:06:57;;;;;;;3.90;2.00;;;;;;;;;;5018813;28;20025;-65
2024/03/27 12:09:23;;;;;;;6.00;2.28;;;;;;;;;;5019279;28;20057;-66
2024/03/27 12:11:50;;;;;;;4.88;1.92;;;;;;;;;;5018700;28;20445;-67
2024/03/27 12:14:17;;;;;;;3.58;1.95;;;;;;;;;;5022014;28;20037;-67
2024/03/27 12:16:43;;;;;;;4.75;2.20;;;;;;;;;;5021323;28;20025;-64
2024/03/27 12:19:10;;;;;;;4.43;2.20;;;;;;;;;;5020017;28;20116;-65
2024/03/27 12:21:38;;;;;;;6.20;2.10;;;;;;;;;;5024624;28;20026;-65
2024/03/27 12:24:04;;;;;;;4.70;1.88;;;;;;;;;;5018442;28;20064;-66
2024/03/27 12:26:30;;;;;;;3.50;1.63;;;;;;;;;;5020603;28;20470;-65
2024/03/27 12:28:56;;;;;;;4.10;2.15;;;;;;;;;;5022654;28;20323;-65
2024/03/27 12:31:22;;;;;;;4.57;2.15;;;;;;;;;;5016497;28;20085;-65
2024/03/27 12:33:48;;;;;;;4.50;1.85;;;;;;;;;;5011926;28;20947;-65
2024/03/27 12:36:15;;;;;;;4.53;1.92;;;;;;;;;;5031367;28;20026;-65
2024/03/27 12:38:41;;;;;;;4.55;1.98;;;;;;;;;;5016274;28;20025;-67
2024/03/27 12:41:07;;;;;;;4.55;2.20;;;;;;;;;;5017223;28;20033;-65
2024/03/27 12:43:33;;;;;;;4.38;1.95;;;;;;;;;;5015637;28;20124;-65
2024/03/27 12:46:00;;;;;;;4.15;2.05;;;;;;;;;;4985966;28;20084;-66
2024/03/27 12:48:26;;;;;;;4.55;1.90;;;;;;;;;;5024119;28;20070;-65
2024/03/27 12:50:52;;;;;;;3.53;1.50;;;;;;;;;;5018723;28;20030;-66
2024/03/27 12:53:18;;;;;;;5.32;2.10;;;;;;;;;;5011711;28;20030;-66
2024/03/27 12:55:44;;;;;;;4.10;1.63;;;;;;;;;;5021742;28;20037;-66
2024/03/27 12:58:11;;;;;;;5.38;2.17;;;;;;;;;;5013587;28;20025;-65
2024/03/27 13:00:37;;;;;;;3.97;1.80;;;;;;;;;;5010680;28;20365;-66
2024/03/27 13:03:04;;;;;;;4.60;1.90;;;;;;;;;;5016672;28;20049;-66
2024/03/27 13:05:30;;;;;;;4.50;2.00;;;;;;;;;;5023201;28;20116;-65
2024/03/27 13:07:56;;;;;;;4.03;1.95;;;;;;;;;;4988785;28;20797;-65
2024/03/27 13:10:22;;;;;;;4.18;1.85;;;;;;;;;;5014856;28;20086;-66
2024/03/27 13:12:48;;;;;;;3.53;1.80;;;;;;;;;;5014041;28;20034;-65
2024/03/27 13:15:14;;;;;;;4.47;1.98;;;;;;;;;;5011892;28;20030;-64
2024/03/27 13:17:40;;;;;;;3.30;1.58;;;;;;;;;;5011025;28;20030;-64
2024/03/27 13:20:07;;;;;;;4.72;1.90;;;;;;;;;;5020168;28;20190;-64
2024/03/27 13:22:33;;;;;;;3.55;1.73;;;;;;;;;;5018296;28;20120;-65
2024/03/27 13:24:59;;;;;;;4.43;2.03;;;;;;;;;;5023711;28;20139;-64
2024/03/27 13:27:26;;;;;;;3.88;1.90;;;;;;;;;;5023127;28;20029;-65
2024/03/27 13:29:52;;;;;;;3.33;1.65;;;;;;;;;;5021994;28;20045;-65
2024/03/27 13:32:18;;;;;;;4.32;1.92;;;;;;;;;;5020709;28;20423;-64
2024/03/27 13:34:44;;;;;;;4.53;2.17;;;;;;;;;;5015760;28;20111;-64
2024/03/27 13:37:10;;;;;;;4.57;1.88;;;;;;;;;;5015877;28;20484;-64
2024/03/27 13:39:36;;;;;;;3.60;1.80;;;;;;;;;;5012269;28;20034;-64
2024/03/27 13:42:02;;;;;;;5.13;2.22;;;;;;;;;;5012466;28;20033;-64
2024/03/27 13:44:29;;;;;;;4.22;1.88;;;;;;;;;;5020746;28;20047;-64
2024/03/27 13:46:54;;;;;;;5.30;2.17;;;;;;;;;;5012237;28;20045;-65
2024/03/27 13:49:21;;;;;;;4.72;2.17;;;;;;;;;;5017819;28;20038;-65
2024/03/27 13:51:47;;;;;;;4.72;2.10;;;;;;;;;;5021961;28;20513;-65
2024/03/27 13:54:14;;;;;;;4.90;2.00;;;;;;;;;;5011143;28;20674;-65
2024/03/27 13:56:40;;;;;;;5.20;2.05;;;;;;;;;;5033994;28;20447;-65